Time;durP1;ratioP1;P1;durP2;ratioP2;P2;SDS_P1;SDS_P2;PMS_P1;PMS_P2;Temp;Humidity;BMP_temperature;BMP_pressure;BME280_temperature;BME280_humidity;BME280_pressure;Samples;Min_cycle;Max_cycle;Signal;HPM_P1;HPM_P2
2022/02/11 00:07:06;;;;;;;;;5.50;3.50;;;;;14.97;43.09;98605.50;4807694;28;108979;-81
2022/02/11 00:09:33;;;;;;;;;5.00;3.75;;;;;14.95;43.10;98602.16;4821164;28;103864;-83
2022/02/11 00:12:00;;;;;;;;;4.75;3.75;;;;;14.95;43.17;98604.88;4820827;28;102443;-83
2022/02/11 00:14:30;;;;;;;;;6.00;4.25;;;;;14.93;43.30;98604.28;4823473;28;102430;-80
2022/02/11 00:16:58;;;;;;;;;3.00;2.25;;;;;14.92;43.34;98596.34;4817822;28;104371;-80
2022/02/11 00:19:25;;;;;;;;;4.00;4.00;;;;;14.92;43.64;98599.06;4824594;28;102297;-83
2022/02/11 00:21:52;;;;;;;;;3.00;3.00;;;;;14.94;43.41;98595.06;4814566;28;102190;-84
2022/02/11 00:24:19;;;;;;;;;5.00;4.00;;;;;14.96;42.80;98603.81;4812242;28;102624;-84
2022/02/11 00:26:59;;;;;;;;;4.00;3.50;;;;;14.97;43.35;98616.38;4819291;28;104165;-84
2022/02/11 00:34:42;;;;;;;;;5.00;3.00;;;;;14.94;43.57;98608.69;4821299;28;102624;-84
2022/02/11 00:37:15;;;;;;;;;4.25;4.00;;;;;14.92;42.86;98605.34;4820373;28;104030;-84
2022/02/11 01:04:07;;;;;;;;;3.00;3.00;;;;;14.83;43.57;98608.59;4812447;28;102291;-83
2022/02/11 01:06:34;;;;;;;;;3.25;3.25;;;;;14.83;43.59;98611.31;4811744;28;102202;-82
2022/02/11 01:09:02;;;;;;;;;5.75;4.00;;;;;14.83;43.27;98606.72;4811043;28;103092;-82
2022/02/11 01:13:56;;;;;;;;;4.00;3.50;;;;;14.83;43.11;98628.50;4818303;28;103664;-83
2022/02/11 01:16:33;;;;;;;;;4.50;3.75;;;;;14.82;43.80;98618.66;4817404;28;103119;-83
2022/02/11 01:19:14;;;;;;;;;4.50;3.00;;;;;14.81;43.14;98611.56;4815551;28;109090;-82
2022/02/11 01:21:53;;;;;;;;;5.25;3.00;;;;;14.82;43.23;98615.94;4818869;28;102532;-83
2022/02/11 01:24:44;;;;;;;;;4.00;3.00;;;;;14.81;43.83;98614.28;4817653;28;103826;-83
2022/02/11 01:35:39;;;;;;;;;5.00;4.00;;;;;14.78;43.54;98609.28;4816009;28;102663;-83
2022/02/11 01:46:45;;;;;;;;;4.75;4.25;;;;;14.76;43.86;98600.53;4822616;28;103056;-82
2022/02/11 01:49:45;;;;;;;;;3.00;3.00;;;;;14.76;43.92;98596.97;4815713;28;102639;-83
2022/02/11 01:55:32;;;;;;;;;5.75;3.00;;;;;14.76;43.62;98586.09;4813116;28;102156;-83
2022/02/11 02:22:02;;;;;;;;;3.50;3.00;;;;;14.68;43.80;98568.16;4813748;28;102249;-81
2022/02/11 02:50:25;;;;;;;;;2.50;2.00;;;;;14.66;43.54;98559.41;4813719;28;102749;-81
2022/02/11 02:58:29;;;;;;;;;4.00;3.00;;;;;14.65;43.61;98557.72;4777637;28;104056;-81
2022/02/11 03:50:51;;;;;;;;;2.75;2.00;;;;;14.60;43.52;98571.19;4818997;28;102313;-80
2022/02/11 04:56:44;;;;;;;;;2.00;1.00;;;;;14.51;44.22;98567.09;4821304;28;103790;-83
2022/02/11 05:01:58;;;;;;;;;3.00;1.75;;;;;14.50;43.45;98560.03;4818386;28;102538;-83
2022/02/11 05:04:26;;;;;;;;;2.00;2.00;;;;;14.48;44.38;98564.84;4817994;28;102635;-83
2022/02/11 05:06:53;;;;;;;;;2.00;2.00;;;;;14.48;43.60;98551.25;4821013;28;102407;-80
2022/02/11 05:09:20;;;;;;;;;2.00;2.00;;;;;14.50;44.04;98551.88;4815571;28;104062;-81
2022/02/11 05:11:47;;;;;;;;;2.75;2.00;;;;;14.50;44.17;98549.94;4821037;28;102536;-81
2022/02/11 05:14:14;;;;;;;;;3.75;3.00;;;;;14.48;43.72;98556.69;4817820;28;102634;-84
2022/02/11 05:16:41;;;;;;;;;4.00;3.00;;;;;14.49;43.41;98548.31;4823119;28;103656;-84
2022/02/11 05:19:08;;;;;;;;;1.50;1.00;;;;;14.49;43.89;98542.03;4820241;28;103088;-83
2022/02/11 05:21:35;;;;;;;;;0.75;0.75;;;;;14.49;44.27;98520.25;4822158;28;105730;-84
2022/02/11 05:24:02;;;;;;;;;2.00;1.00;;;;;14.48;43.62;98524.88;4820028;28;102302;-84
2022/02/11 05:26:29;;;;;;;;;2.00;2.00;;;;;14.48;43.89;98530.31;4820517;28;102217;-84
2022/02/11 05:28:56;;;;;;;;;1.50;1.50;;;;;14.48;43.75;98524.88;4820510;28;103682;-84
2022/02/11 05:31:23;;;;;;;;;2.00;2.00;;;;;14.47;44.29;98522.38;4816555;28;102246;-84
2022/02/11 05:33:50;;;;;;;;;1.75;1.75;;;;;14.47;43.78;98534.09;4813319;28;105432;-84
2022/02/11 05:36:18;;;;;;;;;1.00;1.00;;;;;14.49;44.35;98533.88;4817455;28;102267;-84
2022/02/11 05:38:45;;;;;;;;;1.00;1.00;;;;;14.48;43.58;98541.19;4816778;28;104391;-84
2022/02/11 05:41:12;;;;;;;;;1.75;1.00;;;;;14.47;43.70;98541.41;4811760;28;102841;-84
2022/02/11 05:43:40;;;;;;;;;2.50;2.50;;;;;14.45;43.99;98541.66;4818436;28;102293;-84
2022/02/11 05:46:09;;;;;;;;;2.75;2.50;;;;;14.44;43.93;98537.28;4818369;28;102411;-83
2022/02/11 05:48:38;;;;;;;;;3.75;3.00;;;;;14.46;43.89;98539.75;4822001;28;104162;-82
2022/02/11 05:51:09;;;;;;;;;2.00;1.75;;;;;14.47;44.15;98538.69;4818302;28;104227;-81
2022/02/11 05:53:36;;;;;;;;;1.00;1.00;;;;;14.48;44.18;98534.91;4819542;28;103719;-82
2022/02/11 05:56:03;;;;;;;;;3.00;3.00;;;;;14.46;44.38;98539.75;4817928;28;102599;-82
2022/02/11 05:58:30;;;;;;;;;2.00;2.00;;;;;14.44;43.79;98539.16;4817974;29;107213;-83
2022/02/11 06:00:57;;;;;;;;;1.00;1.00;;;;;14.46;44.10;98539.75;4820581;28;103767;-83
2022/02/11 06:03:24;;;;;;;;;2.50;1.75;;;;;14.45;43.65;98535.38;4818597;28;103086;-83
2022/02/11 06:05:51;;;;;;;;;1.75;1.75;;;;;14.44;44.23;98539.16;4819540;28;102747;-82
2022/02/11 06:08:19;;;;;;;;;1.50;1.50;;;;;14.43;44.14;98532.88;4833570;28;103758;-84
2022/02/11 06:10:47;;;;;;;;;2.00;2.00;;;;;14.42;43.76;98535.81;4820745;28;105432;-83
2022/02/11 06:13:15;;;;;;;;;2.75;2.00;;;;;14.43;44.32;98548.38;4825740;28;102787;-82
2022/02/11 06:15:43;;;;;;;;;2.25;2.25;;;;;14.42;44.07;98541.25;4816715;28;102261;-84
2022/02/11 06:18:12;;;;;;;;;2.75;1.75;;;;;14.42;43.77;98547.53;4818077;28;103260;-83
2022/02/11 06:20:39;;;;;;;;;2.00;1.25;;;;;14.43;43.58;98545.66;4821605;28;102228;-83
2022/02/11 06:23:06;;;;;;;;;2.25;1.00;;;;;14.41;44.48;98550.50;4834522;28;102289;-84
2022/02/11 06:25:33;;;;;;;;;4.00;2.00;;;;;14.42;43.62;98554.84;4820053;29;102506;-82
2022/02/11 06:28:00;;;;;;;;;1.50;1.50;;;;;14.40;43.69;98554.28;4815956;28;103867;-83
2022/02/11 06:30:27;;;;;;;;;3.00;2.00;;;;;14.41;44.27;98547.78;4813682;28;105027;-84
2022/02/11 06:32:59;;;;;;;;;3.00;2.75;;;;;14.40;43.83;98548.84;4815965;28;102509;-85
2022/02/11 06:35:31;;;;;;;;;2.25;2.00;;;;;14.39;44.42;98547.16;4824244;28;106961;-83
2022/02/11 06:37:59;;;;;;;;;3.25;2.25;;;;;14.40;44.03;98555.09;4815377;28;104078;-83
2022/02/11 06:40:29;;;;;;;;;3.75;2.00;;;;;14.41;43.96;98545.06;4814586;28;102474;-84
2022/02/11 06:42:57;;;;;;;;;2.00;2.00;;;;;14.41;44.04;98545.88;4815101;28;102680;-84
2022/02/11 06:45:24;;;;;;;;;3.00;3.00;;;;;14.42;44.25;98541.25;4816776;28;102768;-84
2022/02/11 06:47:51;;;;;;;;;2.50;2.50;;;;;14.41;43.81;98542.34;4791205;29;104085;-84
2022/02/11 06:50:18;;;;;;;;;3.50;2.00;;;;;14.40;43.88;98548.84;4794727;28;103158;-84
2022/02/11 06:52:48;;;;;;;;;2.50;2.00;;;;;14.40;44.21;98538.78;4788953;29;103430;-83
2022/02/11 06:55:16;;;;;;;;;1.75;1.75;;;;;14.42;44.17;98535.81;4799170;28;102478;-83
2022/02/11 06:57:43;;;;;;;;;2.25;1.50;;;;;14.43;43.84;98538.31;4813056;28;105152;-82
2022/02/11 07:00:12;;;;;;;;;1.50;1.50;;;;;14.44;43.89;98534.56;4813688;28;102627;-83
2022/02/11 07:02:39;;;;;;;;;2.50;2.00;;;;;14.42;44.28;98520.34;4812541;28;102780;-81
2022/02/11 07:05:07;;;;;;;;;3.00;2.00;;;;;14.41;43.88;98517.84;4811419;28;103039;-83
2022/02/11 07:07:36;;;;;;;;;2.00;1.50;;;;;14.41;44.13;98523.31;4813239;28;109031;-82
2022/02/11 07:10:04;;;;;;;;;3.00;2.00;;;;;14.40;44.50;98517.03;4813561;28;102149;-83
2022/02/11 07:12:31;;;;;;;;;2.75;1.25;;;;;14.41;44.40;98520.59;4813339;28;102092;-83
2022/02/11 07:14:58;;;;;;;;;4.00;2.00;;;;;14.41;44.10;98512.41;4821718;28;102319;-84
2022/02/11 07:17:25;;;;;;;;;2.50;2.00;;;;;14.40;43.69;98511.59;4814465;28;104099;-84
2022/02/11 07:19:52;;;;;;;;;2.50;2.25;;;;;14.40;43.96;98503.41;4794723;28;102297;-83
2022/02/11 07:22:19;;;;;;;;;1.75;1.00;;;;;14.40;44.35;98508.03;4787310;29;102443;-83
2022/02/11 07:24:48;;;;;;;;;3.25;2.50;;;;;14.41;43.84;98507.78;4810970;28;102610;-83
2022/02/11 07:27:15;;;;;;;;;3.00;2.00;;;;;14.40;44.38;98517.03;4815320;28;104229;-83
2022/02/11 07:29:42;;;;;;;;;2.00;2.00;;;;;14.40;44.26;98508.88;4816683;28;102542;-83
2022/02/11 07:32:10;;;;;;;;;2.00;1.00;;;;;14.40;44.04;98510.75;4813664;28;103023;-83
2022/02/11 07:34:40;;;;;;;;;3.00;2.00;;;;;14.40;44.42;98510.75;4821466;28;102551;-83
2022/02/11 07:37:07;;;;;;;;;5.25;2.00;;;;;14.39;44.05;98506.34;4816563;28;108768;-83
2022/02/11 07:39:51;;;;;;;;;3.00;2.00;;;;;14.39;44.35;98506.34;4817752;28;103773;-84
2022/02/11 07:42:18;;;;;;;;;3.50;3.00;;;;;14.39;44.27;98499.03;4815968;28;102898;-80
2022/02/11 07:44:47;;;;;;;;;1.75;1.75;;;;;14.39;43.74;98498.19;4815605;28;102503;-80
2022/02/11 07:47:15;;;;;;;;;1.00;1.00;;;;;14.40;44.26;98491.72;4816608;29;104070;-80
2022/02/11 07:49:42;;;;;;;;;3.25;3.00;;;;;14.38;44.47;98496.53;4818971;28;102580;-81
2022/02/11 07:52:09;;;;;;;;;3.25;2.00;;;;;14.38;44.26;98488.38;4811014;28;102296;-79
2022/02/11 07:54:36;;;;;;;;;2.00;2.00;;;;;14.38;43.87;98491.91;4838035;28;102540;-84
2022/02/11 07:57:04;;;;;;;;;1.50;1.50;;;;;14.39;44.15;98501.75;4817244;28;107366;-83
2022/02/11 07:59:37;;;;;;;;;4.00;3.00;;;;;14.39;43.82;98481.88;4820796;28;102404;-84
2022/02/11 08:02:04;;;;;;;;;2.00;1.00;;;;;14.38;43.75;98493.81;4821009;28;104462;-79
2022/02/11 08:04:32;;;;;;;;;3.00;3.00;;;;;14.40;43.89;98483.53;4818117;29;103753;-84
2022/02/11 08:06:59;;;;;;;;;2.00;1.75;;;;;14.39;44.28;98493.59;4816492;28;104057;-84
2022/02/11 08:09:27;;;;;;;;;2.00;2.00;;;;;14.39;44.57;98490.88;4815197;28;103862;-84
2022/02/11 08:11:55;;;;;;;;;3.75;3.75;;;;;14.40;44.25;98499.88;4818773;28;102208;-84
2022/02/11 08:14:22;;;;;;;;;2.75;2.25;;;;;14.39;43.93;98503.63;4821140;28;103158;-84
2022/02/11 08:16:49;;;;;;;;;3.50;2.25;;;;;14.38;44.37;98504.69;4819175;28;104264;-84
2022/02/11 08:19:19;;;;;;;;;3.00;2.50;;;;;14.38;43.93;98505.53;4819748;28;102261;-82
2022/02/11 08:21:47;;;;;;;;;4.00;3.00;;;;;14.39;43.69;98511.81;4818131;28;102445;-84
2022/02/11 08:24:15;;;;;;;;;2.00;2.00;;;;;14.39;43.88;98515.34;4821960;28;102230;-83
2022/02/11 08:26:43;;;;;;;;;4.00;3.00;;;;;14.37;44.20;98512.00;4806331;28;104048;-82
2022/02/11 08:29:11;;;;;;;;;3.75;3.25;;;;;14.38;44.37;98513.69;4818835;29;102134;-84
2022/02/11 08:31:38;;;;;;;;;3.25;3.00;;;;;14.36;44.76;98517.72;4820902;28;102121;-85
2022/02/11 08:34:05;;;;;;;;;3.75;3.75;;;;;14.37;45.11;98513.91;4805755;28;105656;-85
2022/02/11 08:36:32;;;;;;;;;4.00;4.00;;;;;14.41;44.35;98501.53;4805244;28;104056;-84
2022/02/11 08:38:59;;;;;;;;;4.25;3.75;;;;;14.43;45.60;98504.84;4804920;28;102148;-84
2022/02/11 08:41:26;;;;;;;;;4.00;3.00;;;;;14.45;44.94;98502.75;4811172;28;104290;-84
2022/02/11 08:43:53;;;;;;;;;4.75;3.00;;;;;14.45;45.32;98500.03;4822143;28;102224;-84
2022/02/11 08:46:24;;;;;;;;;4.75;4.00;;;;;14.45;45.73;98510.91;4815628;28;104146;-84
2022/02/11 08:48:51;;;;;;;;;5.00;4.25;;;;;14.44;45.58;98511.94;4813010;28;102485;-84
2022/02/11 08:51:18;;;;;;;;;9.25;6.00;;;;;14.44;45.50;98506.50;4816133;28;102858;-84
2022/02/11 08:53:45;;;;;;;;;3.50;3.50;;;;;14.44;46.20;98511.94;4822991;28;102265;-85
2022/02/11 08:56:12;;;;;;;;;4.50;4.25;;;;;14.42;46.46;98514.06;4833316;28;104106;-83
2022/02/11 08:58:39;;;;;;;;;4.75;4.00;;;;;14.41;45.99;98512.41;4810241;28;102413;-84
2022/02/11 09:01:07;;;;;;;;;3.50;2.25;;;;;14.42;46.33;98512.16;4815316;29;102613;-84
2022/02/11 09:03:35;;;;;;;;;5.00;5.00;;;;;14.40;46.55;98500.69;4808629;28;102279;-84
2022/02/11 09:06:05;;;;;;;;;6.00;5.25;;;;;14.41;46.73;98496.09;4805262;28;104264;-84
2022/02/11 09:08:33;;;;;;;;;9.00;5.00;;;;;14.39;46.38;98500.91;4800743;28;103686;-84
2022/02/11 09:11:02;;;;;;;;;10.75;6.00;;;;;14.39;46.49;98503.63;4807758;28;102549;-84
2022/02/11 09:13:29;;;;;;;;;4.50;3.00;;;;;14.38;46.25;98504.69;4793758;28;102603;-84
2022/02/11 09:19:27;;;;;;;;;6.50;6.50;;;;;14.36;46.70;98498.66;4814920;28;102251;-84
2022/02/11 09:21:54;;;;;;;;;6.50;6.25;;;;;14.36;47.20;98498.66;4811498;28;102380;-84
2022/02/11 09:24:21;;;;;;;;;6.00;6.00;;;;;14.38;47.03;98499.25;4826881;28;103858;-83
2022/02/11 09:26:48;;;;;;;;;9.75;9.00;;;;;14.36;46.87;98493.22;4800830;28;104057;-84
2022/02/11 09:29:16;;;;;;;;;10.50;9.00;;;;;14.38;46.19;98496.53;4803979;28;102698;-84
2022/02/11 09:31:43;;;;;;;;;11.50;9.00;;;;;14.38;46.72;98497.38;4819557;28;102373;-84
2022/02/11 09:34:12;;;;;;;;;9.50;9.50;;;;;14.38;47.04;98491.91;4819928;28;102530;-84
2022/02/11 09:36:39;;;;;;;;;8.25;6.00;;;;;14.38;47.12;98496.53;4821548;28;108939;-85
2022/02/11 09:39:09;;;;;;;;;11.00;9.00;;;;;14.37;47.21;98498.41;4816346;28;102303;-85
2022/02/11 09:41:36;;;;;;;;;11.00;9.00;;;;;14.38;47.12;98501.97;4795428;28;103676;-84
2022/02/11 09:44:04;;;;;;;;;11.00;9.50;;;;;14.38;46.76;98508.25;4817277;28;104358;-84
2022/02/11 09:46:34;;;;;;;;;11.50;10.00;;;;;14.38;46.71;98501.97;4805770;28;104258;-84
2022/02/11 09:49:00;;;;;;;;;9.25;9.25;;;;;14.37;45.96;98489.41;4814672;29;102954;-84
2022/02/11 09:51:27;;;;;;;;;12.25;10.50;;;;;14.36;46.13;98494.06;4811510;28;102742;-84
2022/02/11 09:53:54;;;;;;;;;10.00;9.00;;;;;14.37;46.48;98489.41;4812797;28;102483;-84
2022/02/11 09:56:21;;;;;;;;;10.00;9.00;;;;;14.36;47.07;98493.22;4816277;28;103026;-84
2022/02/11 09:59:04;;;;;;;;;11.25;10.00;;;;;14.36;46.78;98488.63;4818128;28;104459;-84
2022/02/11 10:01:31;;;;;;;;;13.00;11.25;;;;;14.37;46.79;98489.41;4815466;28;102903;-83
2022/02/11 10:04:15;;;;;;;;;8.75;8.75;;;;;14.37;47.33;98495.69;4809689;28;102616;-83
2022/02/11 10:06:45;;;;;;;;;13.50;12.25;;;;;14.26;46.99;98478.25;4813224;28;109015;-84
2022/02/11 10:09:12;;;;;;;;;11.00;10.00;;;;;14.26;46.60;98480.13;4770967;28;102825;-84
2022/02/11 10:11:39;;;;;;;;;13.75;9.75;;;;;14.35;47.41;98491.53;4804117;28;102428;-84
2022/02/11 10:14:25;;;;;;;;;9.50;8.50;;;;;14.38;47.26;98488.38;4797114;28;102304;-84
2022/02/11 10:17:00;;;;;;;;;10.75;8.50;;;;;14.38;46.63;98478.31;4803024;28;107953;-84
2022/02/11 10:19:38;;;;;;;;;13.00;10.50;;;;;14.38;46.62;98475.59;4816861;28;102209;-84
2022/02/11 10:22:21;;;;;;;;;13.00;10.50;;;;;14.39;47.06;98468.28;4814679;28;102249;-84
2022/02/11 10:24:49;;;;;;;;;10.50;9.50;;;;;14.39;47.24;98471.00;4803819;28;102261;-84
2022/02/11 10:27:24;;;;;;;;;12.25;11.00;;;;;14.39;47.02;98480.00;4816760;28;104337;-84
2022/02/11 10:29:54;;;;;;;;;12.00;11.00;;;;;14.37;46.85;98478.53;4806161;28;103605;-84
2022/02/11 10:32:38;;;;;;;;;13.00;10.75;;;;;14.38;46.39;98472.03;4811712;28;102327;-84
2022/02/11 10:35:06;;;;;;;;;12.75;11.75;;;;;14.38;46.62;98469.34;4810057;28;103936;-84
2022/02/11 10:37:33;;;;;;;;;9.50;9.00;;;;;14.39;46.45;98460.94;4812879;28;104062;-84
2022/02/11 10:40:00;;;;;;;;;16.00;11.00;;;;;14.40;46.49;98467.22;4819488;28;103399;-84
2022/02/11 10:42:46;;;;;;;;;11.50;10.00;;;;;14.40;46.78;98461.78;4817029;28;102630;-84
2022/02/11 10:45:39;;;;;;;;;10.75;8.00;;;;;14.42;47.23;98446.88;4819401;28;102399;-85
2022/02/11 10:48:20;;;;;;;;;10.75;9.50;;;;;14.43;46.70;98447.72;4816294;28;108888;-84
2022/02/11 10:50:58;;;;;;;;;10.75;9.75;;;;;14.44;46.54;98446.66;4814282;28;102403;-84
2022/02/11 10:53:29;;;;;;;;;13.75;9.00;;;;;14.44;47.56;98441.22;4815939;28;102368;-84
2022/02/11 10:55:57;;;;;;;;;10.00;9.50;;;;;14.43;47.20;98434.13;4821084;28;102526;-85
2022/02/11 10:58:25;;;;;;;;;10.00;9.00;;;;;14.45;47.30;98437.44;4817068;28;104104;-84
2022/02/11 11:00:53;;;;;;;;;12.00;11.00;;;;;14.44;47.35;98427.63;4819181;28;103073;-84
2022/02/11 11:03:20;;;;;;;;;8.75;8.75;;;;;14.44;46.83;98431.19;4815207;28;102164;-83
2022/02/11 11:05:47;;;;;;;;;9.75;8.50;;;;;14.45;47.73;98437.44;4815810;28;102830;-84
2022/02/11 11:08:14;;;;;;;;;10.00;6.50;;;;;14.46;47.38;98433.66;4820800;28;104086;-84
2022/02/11 11:10:44;;;;;;;;;12.00;11.25;;;;;14.45;47.54;98432.00;4833438;28;102481;-84
2022/02/11 11:13:13;;;;;;;;;9.50;8.50;;;;;14.45;47.45;98432.00;4814027;28;103190;-84
2022/02/11 11:15:44;;;;;;;;;10.50;9.25;;;;;14.44;46.81;98425.72;4818773;28;102560;-84
2022/02/11 11:18:11;;;;;;;;;10.00;10.00;;;;;14.46;47.36;98444.53;4813964;28;110036;-84
2022/02/11 11:20:39;;;;;;;;;12.75;9.50;;;;;14.46;46.99;98428.19;4816297;28;102459;-84
2022/02/11 11:23:18;;;;;;;;;6.50;6.50;;;;;14.45;47.50;98427.41;4818838;28;102341;-84
2022/02/11 11:25:59;;;;;;;;;12.00;10.75;;;;;14.47;47.10;98429.88;4819405;29;102562;-83
2022/02/11 11:28:46;;;;;;;;;11.50;10.25;;;;;14.47;47.57;98435.31;4816687;28;105564;-84
2022/02/11 11:31:16;;;;;;;;;10.50;10.00;;;;;14.47;47.32;98427.16;4817086;28;102271;-84
2022/02/11 11:33:43;;;;;;;;;8.50;7.75;;;;;14.45;46.78;98441.00;4820755;28;102258;-84
2022/02/11 11:36:17;;;;;;;;;8.50;8.25;;;;;14.46;47.42;98425.47;4816059;28;102251;-84
2022/02/11 11:38:57;;;;;;;;;12.25;8.75;;;;;14.47;47.53;98427.16;4815104;29;107875;-85
2022/02/11 11:41:29;;;;;;;;;11.00;9.00;;;;;14.47;48.22;98429.88;4815341;28;102117;-84
2022/02/11 11:43:56;;;;;;;;;5.00;4.50;;;;;14.46;47.91;98422.75;4821351;28;102432;-84
2022/02/11 11:46:28;;;;;;;;;8.25;8.25;;;;;14.47;47.52;98419.00;4812383;29;102251;-83
2022/02/11 11:48:59;;;;;;;;;10.50;9.00;;;;;14.46;47.19;98422.75;4815495;28;104035;-84
2022/02/11 11:51:35;;;;;;;;;10.50;9.00;;;;;14.46;47.86;98423.59;4816490;28;102334;-84
2022/02/11 11:54:18;;;;;;;;;11.00;9.25;;;;;14.46;47.71;98428.19;4816919;28;103285;-84
2022/02/11 11:57:19;;;;;;;;;8.00;7.50;;;;;14.44;47.15;98424.91;4816770;29;102498;-82
2022/02/11 11:59:47;;;;;;;;;11.00;8.00;;;;;14.46;46.96;98433.66;4819716;28;109155;-88
2022/02/11 12:02:35;;;;;;;;;10.00;8.50;;;;;14.45;47.50;98426.56;4816675;28;105638;-80
2022/02/11 12:05:03;;;;;;;;;12.50;9.00;;;;;14.45;48.07;98421.13;4817978;28;102288;-83
2022/02/11 12:07:35;;;;;;;;;6.00;6.00;;;;;14.47;47.91;98429.88;4817155;28;103262;-82
2022/02/11 12:10:05;;;;;;;;;8.75;6.50;;;;;14.46;47.74;98436.38;4814586;28;103066;-82
2022/02/11 12:12:35;;;;;;;;;12.25;10.50;;;;;14.46;47.82;98437.19;4817653;28;103182;-82
2022/02/11 12:15:09;;;;;;;;;7.00;7.00;;;;;14.47;47.29;98429.88;4812716;28;102420;-82
2022/02/11 12:17:37;;;;;;;;;10.00;8.00;;;;;14.45;47.56;98438.28;4818035;28;103000;-82
2022/02/11 12:20:06;;;;;;;;;8.50;7.75;;;;;14.46;46.98;98442.63;4815398;28;103156;-82
2022/02/11 12:22:35;;;;;;;;;9.00;7.50;;;;;14.45;47.00;98449.16;4811646;28;103134;-83
2022/02/11 12:27:53;;;;;;;;;10.25;5.75;;;;;14.44;47.11;98452.94;4819880;28;102493;-82
2022/02/11 12:30:23;;;;;;;;;9.50;6.00;;;;;14.44;47.38;98452.94;4808309;28;104308;-82
2022/02/11 12:33:00;;;;;;;;;9.00;7.00;;;;;14.43;47.23;98470.31;4806423;28;102204;-82
2022/02/11 12:35:33;;;;;;;;;10.00;8.75;;;;;14.43;47.86;98466.75;4810816;28;102339;-83
2022/02/11 12:38:02;;;;;;;;;7.75;6.50;;;;;14.39;47.83;98471.00;4817759;28;102662;-83
2022/02/11 12:40:30;;;;;;;;;8.00;5.75;;;;;14.42;47.08;98486.84;4800581;28;104352;-82
2022/02/11 12:43:03;;;;;;;;;9.00;7.50;;;;;14.42;47.32;98498.56;4812299;28;102740;-83
2022/02/11 12:45:32;;;;;;;;;8.75;8.25;;;;;14.43;47.42;98497.50;4808132;28;103642;-83
2022/02/11 12:48:02;;;;;;;;;8.75;5.75;;;;;14.42;47.62;98511.34;4811390;28;103526;-81
2022/02/11 12:50:31;;;;;;;;;10.00;7.00;;;;;14.42;47.80;98506.72;4812681;28;104002;-82
2022/02/11 12:52:59;;;;;;;;;5.50;5.50;;;;;14.42;47.58;98514.06;4813940;28;102448;-82
2022/02/11 12:55:27;;;;;;;;;9.25;8.50;;;;;14.42;47.11;98514.88;4814024;28;102230;-80
2022/02/11 12:57:57;;;;;;;;;7.50;6.00;;;;;14.41;47.44;98507.78;4810256;28;102159;-81
2022/02/11 13:00:25;;;;;;;;;10.25;8.00;;;;;14.42;47.13;98530.38;4813554;28;103451;-80
2022/02/11 13:02:58;;;;;;;;;9.25;7.00;;;;;14.41;47.15;98537.69;4817043;28;102884;-81
2022/02/11 13:05:28;;;;;;;;;6.00;5.00;;;;;14.41;47.79;98539.63;4820286;28;102419;-81
2022/02/11 13:07:57;;;;;;;;;9.50;7.25;;;;;14.40;48.98;98554.28;4816122;28;102518;-80
2022/02/11 13:10:29;;;;;;;;;8.75;7.50;;;;;14.43;47.84;98567.41;4816428;28;103792;-80
2022/02/11 13:13:00;;;;;;;;;9.50;8.00;;;;;14.43;47.49;98559.25;4816921;28;102621;-80
2022/02/11 13:15:30;;;;;;;;;10.00;6.00;;;;;14.42;47.75;98573.91;4815619;28;102482;-81
2022/02/11 13:18:05;;;;;;;;;5.25;4.00;;;;;14.41;47.72;98573.06;4818312;28;102245;-80
2022/02/11 13:20:39;;;;;;;;;6.50;5.25;;;;;14.40;48.11;98573.31;4814830;28;104280;-82
2022/02/11 13:23:06;;;;;;;;;8.00;5.75;;;;;14.39;48.16;98586.09;4833883;28;102523;-81
2022/02/11 13:25:34;;;;;;;;;8.50;6.50;;;;;14.41;47.90;98599.47;4819394;28;102518;-80
2022/02/11 13:28:08;;;;;;;;;5.25;5.00;;;;;14.41;48.20;98605.72;4804359;29;102325;-81
2022/02/11 13:30:38;;;;;;;;;7.25;6.00;;;;;14.40;48.06;98604.06;4802492;28;104103;-80
2022/02/11 13:33:24;;;;;;;;;6.00;5.00;;;;;14.42;47.87;98622.88;4817528;28;102538;-80
2022/02/11 13:35:53;;;;;;;;;10.75;7.50;;;;;14.41;47.77;98626.69;4817630;28;102532;-80
2022/02/11 13:38:24;;;;;;;;;6.00;5.75;;;;;14.40;48.92;98633.16;4815231;28;102203;-80
2022/02/11 13:40:56;;;;;;;;;8.00;5.00;;;;;14.40;48.01;98634.00;4821843;28;103991;-80
2022/02/11 13:43:24;;;;;;;;;5.00;5.00;;;;;14.41;48.49;98648.44;4818534;28;102443;-80
2022/02/11 13:45:53;;;;;;;;;8.25;5.00;;;;;14.39;48.76;98655.97;4819491;28;103974;-80
2022/02/11 13:48:21;;;;;;;;;9.50;6.00;;;;;14.38;48.37;98671.47;4820496;28;102500;-80
2022/02/11 13:51:05;;;;;;;;;5.50;5.50;;;;;14.38;48.75;98687.78;4818963;28;104122;-80
2022/02/11 13:53:37;;;;;;;;;10.00;8.50;;;;;14.38;48.50;98700.56;4818039;29;102870;-80
2022/02/11 13:56:06;;;;;;;;;7.25;6.25;;;;;14.37;48.15;98713.31;4811876;28;102530;-80
2022/02/11 13:58:33;;;;;;;;;8.75;6.50;;;;;14.39;48.56;98713.09;4818510;28;102612;-80
2022/02/11 14:01:01;;;;;;;;;4.25;3.00;;;;;14.38;49.00;98709.53;4812912;28;104061;-80
2022/02/11 14:03:30;;;;;;;;;7.75;7.75;;;;;14.38;48.89;98733.19;4816980;28;103446;-80
2022/02/11 14:06:02;;;;;;;;;0.75;0.00;;;;;14.37;48.87;98745.13;4816466;28;102213;-79
2022/02/11 14:08:51;;;;;;;;;8.00;5.00;;;;;14.37;48.31;98756.00;4820287;28;103056;-79
2022/02/11 14:11:20;;;;;;;;;5.25;4.75;;;;;14.38;49.35;98769.41;4813364;28;108032;-79
2022/02/11 14:13:48;;;;;;;;;5.00;4.00;;;;;14.38;48.87;98787.59;4818771;28;102718;-79
2022/02/11 14:16:17;;;;;;;;;8.00;6.00;;;;;14.39;48.95;98797.44;4817102;28;104139;-79
2022/02/11 14:18:44;;;;;;;;;6.00;4.75;;;;;14.39;48.43;98800.16;4821247;29;102981;-79
2022/02/11 14:21:14;;;;;;;;;8.75;6.50;;;;;14.37;48.78;98804.97;4815386;28;108907;-79
2022/02/11 14:23:41;;;;;;;;;4.75;4.75;;;;;14.36;49.37;98808.78;4818628;28;102589;-81
2022/02/11 14:26:08;;;;;;;;;7.00;5.00;;;;;14.36;49.58;98819.66;4816709;28;102540;-82
2022/02/11 14:28:36;;;;;;;;;5.00;5.00;;;;;14.35;48.81;98834.25;4831081;28;103310;-82
2022/02/11 14:31:04;;;;;;;;;5.00;5.00;;;;;14.34;49.15;98838.88;4817010;28;104135;-81
2022/02/11 14:33:32;;;;;;;;;5.25;4.00;;;;;14.34;49.45;98862.50;4816428;28;102347;-81
2022/02/11 14:35:59;;;;;;;;;7.00;7.00;;;;;14.30;49.35;98849.34;4816480;28;102200;-81
2022/02/11 14:38:27;;;;;;;;;4.75;4.00;;;;;14.32;48.62;98857.28;4822122;29;102217;-81
2022/02/11 14:43:54;;;;;;;;;5.00;4.00;;;;;14.29;48.72;98861.28;4821285;28;103169;-81
2022/02/11 14:46:21;;;;;;;;;4.75;4.50;;;;;14.29;48.71;98861.28;4828741;28;102990;-81
2022/02/11 14:48:48;;;;;;;;;7.75;5.50;;;;;14.26;49.47;98864.44;4818820;28;102313;-81
2022/02/11 14:51:15;;;;;;;;;5.50;5.00;;;;;14.27;49.75;98882.41;4817047;28;104108;-81
2022/02/11 14:53:42;;;;;;;;;6.00;4.25;;;;;14.27;49.02;98887.84;4821611;28;101972;-81
2022/02/11 14:56:09;;;;;;;;;5.25;4.00;;;;;14.27;49.57;98884.34;4799944;28;102232;-81
2022/02/11 14:58:37;;;;;;;;;5.75;5.25;;;;;14.29;49.43;98895.81;4812012;29;102543;-81
2022/02/11 15:01:08;;;;;;;;;5.75;4.00;;;;;14.28;49.17;98903.13;4803196;29;103951;-81
2022/02/11 15:03:35;;;;;;;;;8.00;5.25;;;;;14.28;49.41;98915.91;4813983;28;102329;-82
2022/02/11 15:06:02;;;;;;;;;3.75;3.50;;;;;14.26;48.94;98918.84;4823020;28;104172;-81
2022/02/11 15:08:29;;;;;;;;;4.00;4.00;;;;;14.25;48.74;98933.50;4817621;28;102576;-81
2022/02/11 15:10:56;;;;;;;;;4.50;4.00;;;;;14.24;49.30;98931.81;4818347;28;104058;-81
2022/02/11 15:13:24;;;;;;;;;3.50;3.50;;;;;14.25;49.04;98957.13;4816508;29;102299;-81
2022/02/11 15:15:51;;;;;;;;;3.00;3.00;;;;;14.24;49.29;98959.03;4816175;28;102248;-80
2022/02/11 15:18:18;;;;;;;;;3.75;3.50;;;;;14.22;49.11;98963.84;4816393;28;111844;-79
2022/02/11 15:20:46;;;;;;;;;4.00;4.00;;;;;14.24;48.84;98969.06;4818641;28;104275;-81
2022/02/11 15:23:26;;;;;;;;;4.75;4.75;;;;;14.22;48.59;98991.06;4818802;28;102452;-80
2022/02/11 15:25:56;;;;;;;;;4.50;3.50;;;;;14.20;49.56;98986.88;4711077;28;103267;-80
2022/02/11 15:28:25;;;;;;;;;5.75;3.75;;;;;14.18;48.97;98984.34;4768659;28;102785;-81
2022/02/11 15:30:52;;;;;;;;;5.00;4.50;;;;;14.18;49.56;98997.94;4823615;28;104575;-80
2022/02/11 15:33:19;;;;;;;;;3.00;2.75;;;;;14.16;49.21;98983.75;4821258;28;102311;-80